Cape Sorell, Australia
Current Conditions -  °F | °C
As of 4:00 AM on Saturday 20 Dec 2014 (Local Time) from YMLT Reporting Station
Clear Clear  
Wind Chill: 50°   Ceiling: Unl
Heat Index: 50°   Visibility: 6mi
Dew Point: 43°   Wind: 13mph
Humidity: 76%   Direction: 330°NNW
Pressure: 29.88"   Gusts: NA
Location:  42.2°S, 145.17°E
Report Text: YMLT 191700Z AUTO 33011KT 9999 // NCD 10/06 Q1012
Loading
Personal Weather Stations






























Interactive Weather Map New forecast layout! Learn more

10-Day Weather Forecast

Advertisements
Track Severe Weather on mobile